createdAt,value
2022-12-20T00:01:27.896Z,8.80
2022-12-20T00:03:56.591Z,8.80
2022-12-20T00:06:25.183Z,8.80
2022-12-20T00:09:01.153Z,8.80
2022-12-20T00:11:29.970Z,8.90
2022-12-20T00:13:58.143Z,8.90
2022-12-20T00:16:27.339Z,8.80
2022-12-20T00:18:56.862Z,8.80
2022-12-20T00:21:24.295Z,8.70
2022-12-20T00:23:52.788Z,8.80
2022-12-20T00:26:22.028Z,8.90
2022-12-20T00:28:49.133Z,9.10
2022-12-20T00:31:19.092Z,9.00
2022-12-20T00:33:48.562Z,9.10
2022-12-20T00:36:16.405Z,9.20
2022-12-20T00:38:46.198Z,9.20
2022-12-20T00:41:19.331Z,9.40
2022-12-20T00:43:46.640Z,9.40
2022-12-20T00:46:15.320Z,9.30
2022-12-20T00:48:42.976Z,9.40
2022-12-20T00:51:12.529Z,9.30
2022-12-20T00:53:39.754Z,9.30
2022-12-20T00:56:08.050Z,9.30
2022-12-20T00:58:36.855Z,9.30
2022-12-20T01:01:05.665Z,9.30
2022-12-20T01:03:32.837Z,9.30
2022-12-20T01:06:01.376Z,9.30
2022-12-20T01:08:31.149Z,9.40
2022-12-20T01:11:19.539Z,9.40
2022-12-20T01:13:50.625Z,9.40
2022-12-20T01:16:25.499Z,9.40
2022-12-20T01:18:52.897Z,9.40
2022-12-20T01:21:21.948Z,9.50
2022-12-20T01:23:49.464Z,9.60
2022-12-20T01:26:19.765Z,9.50
2022-12-20T01:28:48.339Z,9.50
2022-12-20T01:31:17.673Z,9.60
2022-12-20T01:33:46.092Z,9.50
2022-12-20T01:36:15.799Z,9.60
2022-12-20T01:38:42.796Z,9.60
2022-12-20T01:41:16.720Z,9.40
2022-12-20T01:43:58.967Z,9.30
2022-12-20T01:46:31.739Z,9.30
2022-12-20T01:49:19.783Z,9.30
2022-12-20T01:52:09.427Z,9.20
2022-12-20T01:54:50.279Z,9.30
2022-12-20T01:57:29.795Z,9.40
2022-12-20T01:59:57.612Z,9.50
2022-12-20T02:02:25.133Z,9.50
2022-12-20T02:04:52.090Z,9.50
2022-12-20T02:07:24.140Z,9.50
2022-12-20T02:09:52.108Z,9.50
2022-12-20T02:12:29.892Z,9.50
2022-12-20T02:15:14.676Z,9.60
2022-12-20T02:17:44.720Z,9.50
2022-12-20T02:20:30.177Z,9.60
2022-12-20T02:22:59.970Z,9.50
2022-12-20T02:25:32.766Z,9.60
2022-12-20T02:28:12.717Z,9.60
2022-12-20T02:30:43.839Z,9.60
2022-12-20T02:33:14.790Z,9.70
2022-12-20T02:35:42.732Z,9.60
2022-12-20T02:38:30.463Z,9.60
2022-12-20T02:41:03.374Z,9.60
2022-12-20T02:43:51.445Z,9.80
2022-12-20T02:46:20.524Z,9.70
2022-12-20T02:48:49.508Z,9.70
2022-12-20T02:51:18.703Z,9.50
2022-12-20T02:53:46.105Z,9.50
2022-12-20T02:56:18.151Z,9.40
2022-12-20T02:59:10.659Z,9.50
2022-12-20T03:01:42.442Z,9.40
2022-12-20T03:04:09.495Z,9.30
2022-12-20T03:06:36.392Z,9.40
2022-12-20T03:09:03.537Z,9.40
2022-12-20T03:11:30.617Z,9.50
2022-12-20T03:13:57.370Z,9.60
2022-12-20T03:16:24.639Z,9.80
2022-12-20T03:18:51.509Z,9.70
2022-12-20T03:21:18.231Z,9.70
2022-12-20T03:23:45.109Z,9.60
2022-12-20T03:26:12.097Z,9.60
2022-12-20T03:28:38.953Z,9.70
2022-12-20T03:31:05.945Z,9.60
2022-12-20T03:33:32.780Z,9.70
2022-12-20T03:35:59.588Z,10.00
2022-12-20T03:38:26.410Z,9.70
2022-12-20T03:40:53.353Z,9.60
2022-12-20T03:43:20.222Z,9.60
2022-12-20T03:45:47.015Z,9.60
2022-12-20T03:48:13.809Z,9.70
2022-12-20T03:50:40.670Z,9.60
2022-12-20T03:53:07.753Z,9.60
2022-12-20T03:55:34.835Z,9.80
2022-12-20T03:58:01.586Z,9.80
2022-12-20T04:00:28.676Z,9.70
2022-12-20T04:02:56.091Z,9.80
2022-12-20T04:05:23.070Z,9.80
2022-12-20T04:07:50.103Z,9.80
2022-12-20T04:10:16.924Z,9.80
2022-12-20T04:12:43.960Z,10.00
2022-12-20T04:15:11.230Z,10.00
2022-12-20T04:17:38.146Z,9.90
2022-12-20T04:20:19.229Z,10.00
2022-12-20T04:22:50.773Z,10.00
2022-12-20T04:25:20.079Z,10.00
2022-12-20T04:27:47.231Z,10.00
2022-12-20T04:30:14.475Z,9.90
2022-12-20T04:32:41.275Z,9.90
2022-12-20T04:35:08.531Z,9.90
2022-12-20T04:37:35.358Z,9.80
2022-12-20T04:40:02.220Z,9.70
2022-12-20T04:42:28.952Z,9.60
2022-12-20T04:44:55.710Z,9.70
2022-12-20T04:47:22.906Z,9.70
2022-12-20T04:49:49.749Z,9.70
2022-12-20T04:52:35.245Z,9.60
2022-12-20T04:55:02.280Z,9.70
2022-12-20T04:57:29.071Z,9.60
2022-12-20T04:59:55.869Z,9.60
2022-12-20T05:02:23.236Z,9.60
2022-12-20T05:04:50.319Z,9.60
2022-12-20T05:07:17.144Z,9.60
2022-12-20T05:09:44.042Z,9.70
2022-12-20T05:12:10.850Z,9.70
2022-12-20T05:14:37.667Z,9.70
2022-12-20T05:17:04.688Z,9.70
2022-12-20T05:19:31.562Z,9.70
2022-12-20T05:22:16.800Z,9.70
2022-12-20T05:25:02.308Z,9.80
2022-12-20T05:27:30.497Z,9.90
2022-12-20T05:29:57.410Z,9.90
2022-12-20T05:32:24.199Z,9.90
2022-12-20T05:34:50.974Z,10.00
2022-12-20T05:39:45.071Z,10.00
2022-12-20T05:42:12.301Z,10.00
2022-12-20T05:44:39.125Z,10.00
2022-12-20T05:47:05.934Z,10.10
2022-12-20T05:49:32.774Z,10.00
2022-12-20T05:51:59.596Z,10.00
2022-12-20T05:54:26.407Z,10.00
2022-12-20T05:56:53.245Z,9.90
2022-12-20T05:59:20.245Z,9.90
2022-12-20T06:01:47.093Z,9.90
2022-12-20T06:04:13.995Z,9.90
2022-12-20T06:06:40.809Z,9.90
2022-12-20T06:09:07.639Z,9.90
2022-12-20T06:11:34.429Z,9.80
2022-12-20T06:14:01.170Z,9.70
2022-12-20T06:16:28.532Z,9.70
2022-12-20T06:18:55.648Z,9.60
2022-12-20T06:21:22.913Z,9.60
2022-12-20T06:23:49.758Z,9.50
2022-12-20T06:26:16.737Z,9.60
2022-12-20T06:28:43.628Z,9.60
2022-12-20T06:31:11.703Z,9.50
2022-12-20T06:33:38.813Z,9.60
2022-12-20T06:36:05.972Z,9.50
2022-12-20T06:38:32.811Z,9.50
2022-12-20T06:40:59.937Z,9.60
2022-12-20T06:43:26.808Z,9.60
2022-12-20T06:45:53.706Z,9.60
2022-12-20T06:48:21.374Z,9.60
2022-12-20T06:50:55.762Z,9.70
2022-12-20T06:53:23.325Z,9.70
2022-12-20T06:55:50.909Z,9.60
2022-12-20T06:58:21.019Z,9.70
2022-12-20T07:00:48.415Z,9.70
2022-12-20T07:03:15.993Z,9.70
2022-12-20T07:05:43.095Z,9.60
2022-12-20T07:08:10.042Z,9.60
2022-12-20T07:10:38.292Z,9.50
2022-12-20T07:13:05.259Z,9.60
2022-12-20T07:15:32.134Z,9.60
2022-12-20T07:17:59.754Z,9.60
2022-12-20T07:20:26.826Z,9.60
2022-12-20T07:22:53.861Z,9.60
2022-12-20T07:25:20.997Z,9.50
2022-12-20T07:27:50.067Z,9.50
2022-12-20T07:30:18.122Z,9.50
2022-12-20T07:32:45.183Z,9.40
2022-12-20T07:35:12.977Z,9.40
2022-12-20T07:37:39.937Z,9.40
2022-12-20T07:40:08.584Z,9.50
2022-12-20T07:42:39.210Z,9.50
2022-12-20T07:45:07.813Z,9.40
2022-12-20T07:47:35.930Z,9.60
2022-12-20T07:50:03.595Z,9.50
2022-12-20T07:52:34.731Z,9.40
2022-12-20T07:55:05.905Z,9.40
2022-12-20T07:57:39.592Z,9.40
2022-12-20T08:00:07.309Z,9.40
2022-12-20T08:02:42.281Z,9.60
2022-12-20T08:05:10.652Z,9.60
2022-12-20T08:07:41.396Z,9.50
2022-12-20T08:10:11.885Z,9.50
2022-12-20T08:12:39.712Z,9.50
2022-12-20T08:15:07.301Z,9.70
2022-12-20T08:17:34.874Z,9.70
2022-12-20T08:20:02.069Z,9.60
2022-12-20T08:22:29.093Z,9.70
2022-12-20T08:24:56.005Z,9.80
2022-12-20T08:27:22.840Z,9.80
2022-12-20T08:29:50.118Z,9.80
2022-12-20T08:32:16.931Z,9.70
2022-12-20T08:34:43.704Z,9.80
2022-12-20T08:37:14.766Z,9.90
2022-12-20T08:39:42.229Z,9.90
2022-12-20T08:42:12.595Z,10.00
2022-12-20T08:44:39.528Z,10.00
2022-12-20T08:47:06.328Z,10.00
2022-12-20T08:49:33.897Z,10.00
2022-12-20T08:52:00.994Z,10.00
2022-12-20T08:54:27.878Z,10.10
2022-12-20T08:56:54.717Z,10.20
2022-12-20T08:59:21.738Z,10.20
2022-12-20T09:01:48.837Z,10.30
2022-12-20T09:04:19.231Z,10.30
2022-12-20T09:06:46.277Z,10.30
2022-12-20T09:09:13.511Z,10.40
2022-12-20T09:11:40.494Z,10.40
2022-12-20T09:14:08.263Z,10.50
2022-12-20T09:16:35.108Z,10.40
2022-12-20T09:19:06.938Z,10.40
2022-12-20T09:21:35.173Z,10.40
2022-12-20T09:24:02.958Z,10.40
2022-12-20T09:26:32.620Z,10.50
2022-12-20T09:28:59.744Z,10.50
2022-12-20T09:31:27.465Z,10.60
2022-12-20T09:33:56.612Z,10.60
2022-12-20T09:36:25.076Z,10.70
2022-12-20T09:38:52.747Z,10.70
2022-12-20T09:41:39.570Z,10.70
2022-12-20T09:44:19.395Z,10.70
2022-12-20T09:47:10.105Z,10.70
2022-12-20T09:49:41.520Z,10.70
2022-12-20T09:52:32.502Z,10.60
2022-12-20T09:55:21.042Z,10.60
2022-12-20T09:58:15.291Z,10.60
2022-12-20T10:00:53.887Z,10.80
2022-12-20T10:03:31.738Z,10.80
2022-12-20T10:06:09.417Z,10.80
2022-12-20T10:08:48.490Z,10.90
2022-12-20T10:11:57.947Z,10.90
2022-12-20T10:14:36.493Z,10.90
2022-12-20T10:17:14.258Z,11.00
2022-12-20T10:20:00.403Z,11.00
2022-12-20T10:22:39.484Z,11.10
2022-12-20T10:25:25.275Z,11.10
2022-12-20T10:27:56.977Z,11.10
2022-12-20T10:30:26.984Z,11.20
2022-12-20T10:32:56.434Z,11.10
2022-12-20T10:35:31.557Z,11.10
2022-12-20T10:38:09.416Z,11.00
2022-12-20T10:41:18.903Z,11.00
2022-12-20T10:43:27.767Z,11.00
2022-12-20T10:46:08.835Z,11.00
2022-12-20T10:48:41.048Z,11.00
2022-12-20T10:51:15.813Z,10.90
2022-12-20T10:53:55.771Z,11.00
2022-12-20T10:56:29.524Z,10.90
2022-12-20T10:59:03.601Z,10.80
2022-12-20T11:01:43.733Z,10.80
2022-12-20T11:04:35.129Z,10.70
2022-12-20T11:07:21.272Z,10.70
2022-12-20T11:10:25.026Z,10.80
2022-12-20T11:13:02.793Z,10.80
2022-12-20T11:15:34.332Z,10.90
2022-12-20T11:18:33.626Z,11.00
2022-12-20T11:21:09.740Z,11.00
2022-12-20T11:23:52.978Z,11.00
2022-12-20T11:26:39.148Z,10.90
2022-12-20T11:29:30.323Z,10.90
2022-12-20T11:32:21.408Z,10.90
2022-12-20T11:35:07.853Z,10.90
2022-12-20T11:37:54.138Z,10.90
2022-12-20T11:40:37.141Z,10.90
2022-12-20T11:44:01.134Z,10.90
2022-12-20T11:46:41.088Z,10.90
2022-12-20T11:49:18.971Z,11.00
2022-12-20T11:51:46.702Z,11.10
2022-12-20T11:54:38.295Z,11.10
2022-12-20T11:57:13.622Z,11.10
2022-12-20T11:59:49.558Z,11.10
2022-12-20T12:02:58.026Z,11.20
2022-12-20T12:05:54.791Z,11.20
2022-12-20T12:08:47.352Z,11.20
2022-12-20T12:12:09.181Z,11.30
2022-12-20T12:15:01.472Z,11.30
2022-12-20T12:17:39.937Z,11.30
2022-12-20T12:20:31.414Z,11.30
2022-12-20T12:23:05.732Z,11.40
2022-12-20T12:25:32.764Z,11.40
2022-12-20T12:28:00.785Z,11.30
2022-12-20T12:30:36.174Z,11.30
2022-12-20T12:33:23.959Z,11.30
2022-12-20T12:35:54.597Z,11.30
2022-12-20T12:38:42.605Z,11.30
2022-12-20T12:41:47.557Z,11.30
2022-12-20T12:44:32.404Z,11.20
2022-12-20T12:47:03.749Z,11.20
2022-12-20T12:49:32.357Z,11.20
2022-12-20T12:52:02.601Z,11.30
2022-12-20T12:54:41.140Z,11.30
2022-12-20T12:57:18.559Z,11.30
2022-12-20T12:59:48.470Z,11.40
2022-12-20T13:02:16.418Z,11.50
2022-12-20T13:04:55.167Z,11.50
2022-12-20T13:07:35.244Z,11.50
2022-12-20T13:10:30.217Z,11.40
2022-12-20T13:13:00.151Z,11.50
2022-12-20T13:15:27.318Z,11.40
2022-12-20T13:18:17.211Z,11.40
2022-12-20T13:21:04.249Z,11.30
2022-12-20T13:23:31.361Z,11.30
2022-12-20T13:25:58.416Z,11.20
2022-12-20T13:28:25.297Z,11.10
2022-12-20T13:31:01.218Z,11.00
2022-12-20T13:33:47.667Z,11.20
2022-12-20T13:36:17.576Z,11.20
2022-12-20T13:38:45.627Z,11.20
2022-12-20T13:41:45.272Z,11.20
2022-12-20T13:44:14.952Z,11.20
2022-12-20T13:46:54.782Z,11.20
2022-12-20T13:49:28.348Z,11.30
2022-12-20T13:52:20.994Z,11.30
2022-12-20T13:54:50.424Z,11.30
2022-12-20T13:57:24.627Z,11.40
2022-12-20T14:00:01.814Z,11.50
2022-12-20T14:02:40.876Z,11.60
2022-12-20T14:05:20.603Z,11.60
2022-12-20T14:07:54.278Z,11.60
2022-12-20T14:10:25.119Z,11.70
2022-12-20T14:12:53.587Z,11.70
2022-12-20T14:15:32.375Z,11.70
2022-12-20T14:18:15.562Z,11.80
2022-12-20T14:20:42.897Z,11.80
2022-12-20T14:23:18.086Z,11.70
2022-12-20T14:25:58.989Z,11.70
2022-12-20T14:28:36.218Z,11.70
2022-12-20T14:31:05.267Z,11.70
2022-12-20T14:33:37.295Z,11.60
2022-12-20T14:36:19.629Z,11.70
2022-12-20T14:38:51.819Z,11.60
2022-12-20T14:41:35.329Z,11.70
2022-12-20T14:44:17.298Z,11.60
2022-12-20T14:46:53.764Z,11.50
2022-12-20T14:49:55.871Z,11.50
2022-12-20T14:52:36.806Z,11.60
2022-12-20T14:55:20.599Z,11.50
2022-12-20T14:57:52.157Z,11.60
2022-12-20T15:00:19.144Z,11.50
2022-12-20T15:02:50.097Z,11.50
2022-12-20T15:05:35.903Z,11.50
2022-12-20T15:08:12.760Z,11.50
2022-12-20T15:10:55.129Z,11.50
2022-12-20T15:13:32.354Z,11.40
2022-12-20T15:16:05.208Z,11.50
2022-12-20T15:18:32.945Z,11.40
2022-12-20T15:21:19.901Z,11.30
2022-12-20T15:23:52.207Z,11.00
2022-12-20T15:26:22.514Z,11.00
2022-12-20T15:28:49.912Z,10.80
2022-12-20T15:31:20.170Z,10.70
2022-12-20T15:33:48.401Z,10.70
2022-12-20T15:36:23.326Z,10.60
2022-12-20T15:39:11.809Z,10.60
2022-12-20T15:41:43.394Z,10.60
2022-12-20T15:44:30.878Z,10.50
2022-12-20T15:46:58.022Z,10.50
2022-12-20T15:49:29.709Z,10.40
2022-12-20T15:51:56.814Z,10.50
2022-12-20T15:54:35.675Z,10.50
2022-12-20T15:57:09.369Z,10.50
2022-12-20T16:02:29.270Z,10.50
2022-12-20T16:04:56.815Z,10.50
2022-12-20T16:07:24.182Z,10.50
2022-12-20T16:09:51.911Z,10.50
2022-12-20T16:12:35.915Z,10.50
2022-12-20T16:15:03.464Z,10.40
2022-12-20T16:17:31.789Z,10.50
2022-12-20T16:19:58.925Z,10.50
2022-12-20T16:22:26.617Z,10.50
2022-12-20T16:24:53.731Z,10.50
2022-12-20T16:27:21.208Z,10.50
2022-12-20T16:29:48.673Z,10.50
2022-12-20T16:32:17.869Z,10.40
2022-12-20T16:34:47.772Z,10.40
2022-12-20T16:37:15.446Z,10.40
2022-12-20T16:39:42.835Z,10.30
2022-12-20T16:42:23.368Z,10.40
2022-12-20T16:44:54.597Z,10.50
2022-12-20T16:47:22.148Z,10.40
2022-12-20T16:49:52.892Z,10.50
2022-12-20T16:52:22.596Z,10.40
2022-12-20T16:54:50.139Z,10.50
2022-12-20T16:57:16.996Z,10.50
2022-12-20T16:59:44.730Z,10.50
2022-12-20T17:02:29.530Z,10.50
2022-12-20T17:04:57.127Z,10.50
2022-12-20T17:07:26.032Z,10.50
2022-12-20T17:09:53.862Z,10.50
2022-12-20T17:12:23.766Z,10.40
2022-12-20T17:14:51.020Z,10.40
2022-12-20T17:17:18.006Z,10.40
2022-12-20T17:19:45.065Z,10.40
2022-12-20T17:24:57.144Z,10.40
2022-12-20T17:27:23.977Z,10.40
2022-12-20T17:29:51.108Z,10.40
2022-12-20T17:32:25.728Z,10.30
2022-12-20T17:34:53.171Z,10.30
2022-12-20T17:37:21.088Z,10.30
2022-12-20T17:39:48.526Z,10.30
2022-12-20T17:42:16.935Z,10.20
2022-12-20T17:44:46.281Z,10.30
2022-12-20T17:47:13.434Z,10.30
2022-12-20T17:49:40.642Z,10.30
2022-12-20T17:52:13.565Z,10.30
2022-12-20T17:54:40.669Z,10.30
2022-12-20T17:57:14.397Z,10.30
2022-12-20T17:59:42.546Z,10.30
2022-12-20T18:02:23.107Z,10.30
2022-12-20T18:04:51.346Z,10.30
2022-12-20T18:07:18.357Z,10.30
2022-12-20T18:09:48.013Z,10.20
2022-12-20T18:12:15.196Z,10.20
2022-12-20T18:14:42.145Z,10.20
2022-12-20T18:17:09.257Z,10.20
2022-12-20T18:19:36.300Z,10.20
2022-12-20T18:22:04.803Z,10.20
2022-12-20T18:24:31.747Z,10.10
2022-12-20T18:26:58.664Z,10.00
2022-12-20T18:29:25.626Z,10.20
2022-12-20T18:31:52.797Z,10.20
2022-12-20T18:34:19.687Z,10.20
2022-12-20T18:36:46.718Z,10.20
2022-12-20T18:39:14.233Z,10.10
2022-12-20T18:41:43.170Z,10.20
2022-12-20T18:44:11.532Z,10.20
2022-12-20T18:46:38.693Z,10.20
2022-12-20T18:49:05.794Z,10.10
2022-12-20T18:51:37.988Z,10.10
2022-12-20T18:54:06.994Z,10.20
2022-12-20T18:56:36.949Z,10.10
2022-12-20T18:59:11.313Z,10.10
2022-12-20T19:01:40.565Z,10.00
2022-12-20T19:04:08.319Z,10.00
2022-12-20T19:06:39.882Z,10.00
2022-12-20T19:09:10.122Z,10.00
2022-12-20T19:11:37.760Z,10.00
2022-12-20T19:14:05.130Z,9.90
2022-12-20T19:16:33.191Z,9.90
2022-12-20T19:19:02.584Z,10.00
2022-12-20T19:21:31.885Z,9.90
2022-12-20T19:24:02.641Z,9.90
2022-12-20T19:26:30.003Z,9.90
2022-12-20T19:28:57.669Z,9.90
2022-12-20T19:31:27.369Z,9.90
2022-12-20T19:33:57.047Z,9.80
2022-12-20T19:36:26.205Z,9.80
2022-12-20T19:38:56.135Z,9.80
2022-12-20T19:41:25.869Z,9.80
2022-12-20T19:43:53.250Z,9.80
2022-12-20T19:46:27.973Z,9.80
2022-12-20T19:48:56.799Z,9.80
2022-12-20T19:51:24.085Z,9.80
2022-12-20T19:53:53.384Z,9.80
2022-12-20T19:56:23.362Z,9.80
2022-12-20T19:58:50.422Z,9.80
2022-12-20T20:01:18.650Z,9.80
2022-12-20T20:03:46.141Z,9.80
2022-12-20T20:06:14.795Z,9.80
2022-12-20T20:08:42.459Z,9.80
2022-12-20T20:11:10.720Z,9.80
2022-12-20T20:13:38.899Z,9.70
2022-12-20T20:16:07.505Z,9.80
2022-12-20T20:18:36.835Z,9.80
2022-12-20T20:21:13.729Z,9.70
2022-12-20T20:23:41.358Z,9.80
2022-12-20T20:26:11.516Z,9.80
2022-12-20T20:28:45.457Z,9.70
2022-12-20T20:31:15.761Z,9.80
2022-12-20T20:33:43.781Z,9.80
2022-12-20T20:36:14.657Z,9.80
2022-12-20T20:38:41.607Z,9.80
2022-12-20T20:41:08.965Z,10.00
2022-12-20T20:43:37.955Z,9.90
2022-12-20T20:46:06.556Z,9.90
2022-12-20T20:48:34.251Z,9.90
2022-12-20T20:51:01.165Z,9.90
2022-12-20T20:53:33.496Z,9.90
2022-12-20T20:56:05.090Z,9.90
2022-12-20T20:58:33.413Z,10.00
2022-12-20T21:01:02.452Z,9.90
2022-12-20T21:03:31.405Z,10.00
2022-12-20T21:08:45.645Z,9.90
2022-12-20T21:11:13.598Z,9.90
2022-12-20T21:13:40.769Z,9.90
2022-12-20T21:16:20.390Z,9.80
2022-12-20T21:18:56.823Z,9.90
2022-12-20T21:21:24.984Z,9.80
2022-12-20T21:23:53.076Z,9.80
2022-12-20T21:26:22.610Z,9.80
2022-12-20T21:28:49.730Z,9.80
2022-12-20T21:31:19.634Z,9.80
2022-12-20T21:33:47.403Z,9.80
2022-12-20T21:36:16.861Z,9.70
2022-12-20T21:38:51.780Z,9.80
2022-12-20T21:41:23.448Z,9.80
2022-12-20T21:43:51.969Z,9.80
2022-12-20T21:46:18.842Z,9.80
2022-12-20T21:48:46.046Z,9.80
2022-12-20T21:51:19.614Z,9.80
2022-12-20T21:53:48.969Z,9.80
2022-12-20T21:56:17.361Z,9.90
2022-12-20T21:58:44.784Z,10.00
2022-12-20T22:01:14.407Z,10.00
2022-12-20T22:03:41.913Z,10.00
2022-12-20T22:06:08.971Z,10.00
2022-12-20T22:08:36.218Z,10.00
2022-12-20T22:11:06.196Z,9.90
2022-12-20T22:13:40.838Z,10.00
2022-12-20T22:16:12.985Z,10.00
2022-12-20T22:18:41.288Z,10.00
2022-12-20T22:21:11.866Z,10.00
2022-12-20T22:23:39.553Z,10.10
2022-12-20T22:26:12.524Z,10.10
2022-12-20T22:28:43.914Z,10.20
2022-12-20T22:31:11.489Z,10.30
2022-12-20T22:33:39.486Z,10.20
2022-12-20T22:36:07.619Z,10.30
2022-12-20T22:38:35.138Z,10.30
2022-12-20T22:41:13.415Z,10.30
2022-12-20T22:43:41.125Z,10.30
2022-12-20T22:46:10.619Z,10.30
2022-12-20T22:48:39.152Z,10.30
2022-12-20T22:51:14.787Z,10.40
2022-12-20T22:53:42.723Z,10.40
2022-12-20T22:56:10.681Z,10.30
2022-12-20T22:58:38.478Z,10.30
2022-12-20T23:01:08.561Z,10.30
2022-12-20T23:03:37.169Z,10.40
2022-12-20T23:06:07.085Z,10.40
2022-12-20T23:08:36.549Z,10.40
2022-12-20T23:11:23.536Z,10.40
2022-12-20T23:14:08.773Z,10.50
2022-12-20T23:16:38.178Z,10.50
2022-12-20T23:19:05.259Z,10.60
2022-12-20T23:21:50.922Z,10.50
2022-12-20T23:24:17.766Z,10.50
2022-12-20T23:26:44.778Z,10.50
2022-12-20T23:29:14.189Z,10.60
2022-12-20T23:31:41.274Z,10.60
2022-12-20T23:34:08.536Z,10.60
2022-12-20T23:36:35.501Z,10.50
2022-12-20T23:39:02.687Z,10.60
2022-12-20T23:41:29.860Z,10.60
2022-12-20T23:43:56.839Z,10.60
2022-12-20T23:46:24.596Z,10.60
2022-12-20T23:48:52.785Z,10.60
2022-12-20T23:51:20.339Z,10.60
2022-12-20T23:53:47.179Z,10.60
2022-12-20T23:56:17.615Z,10.70
2022-12-20T23:58:46.012Z,10.70
